Time;durP1;ratioP1;P1;durP2;ratioP2;P2;SDS_P1;SDS_P2;PMS_P1;PMS_P2;Temp;Humidity;BMP_temperature;BMP_pressure;BME280_temperature;BME280_humidity;BME280_pressure;Samples;Min_cycle;Max_cycle;Signal;HPM_P1;HPM_P2
2021/06/02 00:02:16;;;;;;;5.73;4.47;;;15.20;99.90;;;;;;5108946;28;20207;-66
2021/06/02 00:04:46;;;;;;;5.43;4.93;;;15.10;99.90;;;;;;5091275;28;20175;-66
2021/06/02 00:07:15;;;;;;;4.57;4.17;;;15.10;99.90;;;;;;5107905;28;20397;-66
2021/06/02 00:09:46;;;;;;;6.23;5.40;;;15.10;99.90;;;;;;5118827;28;20224;-66
2021/06/02 00:12:14;;;;;;;5.50;4.97;;;15.10;99.90;;;;;;5116150;28;20363;-66
2021/06/02 00:14:42;;;;;;;5.30;4.93;;;15.10;99.90;;;;;;5122155;28;20225;-66
2021/06/02 00:17:11;;;;;;;5.70;5.20;;;15.10;99.90;;;;;;5111287;28;20179;-66
2021/06/02 00:19:39;;;;;;;5.70;5.20;;;15.00;99.90;;;;;;5123272;28;20187;-66
2021/06/02 00:22:08;;;;;;;8.93;5.47;;;14.80;99.90;;;;;;5116159;28;20199;-66
2021/06/02 00:24:38;;;;;;;6.47;5.33;;;14.80;99.90;;;;;;5114484;27;20332;-66
2021/06/02 00:27:11;;;;;;;5.47;5.03;;;14.80;99.90;;;;;;5106202;28;20202;-66
2021/06/02 00:29:42;;;;;;;6.73;5.50;;;14.70;99.90;;;;;;5119024;28;20206;-66
2021/06/02 00:32:10;;;;;;;6.47;5.07;;;14.80;99.90;;;;;;5112238;28;20179;-66
2021/06/02 00:34:38;;;;;;;7.80;5.83;;;14.70;99.90;;;;;;5122490;28;20197;-66
2021/06/02 00:37:08;;;;;;;5.80;5.20;;;14.70;99.90;;;;;;5113491;28;20224;-66
2021/06/02 00:39:36;;;;;;;5.13;4.83;;;14.50;99.90;;;;;;5124498;28;20183;-66
2021/06/02 00:42:05;;;;;;;6.97;5.27;;;14.50;99.90;;;;;;5120543;28;20501;-66
2021/06/02 00:44:34;;;;;;;5.30;4.90;;;14.40;99.90;;;;;;5114765;28;20217;-65
2021/06/02 00:47:03;;;;;;;8.43;5.43;;;14.40;99.90;;;;;;5116116;28;20192;-66
2021/06/02 00:49:31;;;;;;;6.37;5.60;;;14.40;99.90;;;;;;5123663;28;20186;-65
2021/06/02 00:52:00;;;;;;;5.47;5.07;;;14.30;99.90;;;;;;5118225;28;20473;-66
2021/06/02 00:54:30;;;;;;;5.67;5.23;;;14.20;99.90;;;;;;5082381;28;20184;-66
2021/06/02 00:57:05;;;;;;;6.80;6.17;;;14.20;99.90;;;;;;5079789;28;20224;-65
2021/06/02 00:59:38;;;;;;;9.67;6.57;;;14.10;99.90;;;;;;5070495;28;20453;-65
2021/06/02 01:02:33;;;;;;;6.37;5.77;;;14.00;99.90;;;;;;5075776;28;20219;-66
2021/06/02 01:05:02;;;;;;;7.67;5.90;;;13.90;99.90;;;;;;5075655;28;20184;-66
2021/06/02 01:07:32;;;;;;;5.90;5.30;;;13.90;99.90;;;;;;5076965;28;20192;-66
2021/06/02 01:10:01;;;;;;;8.13;6.03;;;14.00;99.90;;;;;;5084371;28;20208;-66
2021/06/02 01:12:34;;;;;;;8.63;6.13;;;13.90;99.90;;;;;;5073531;28;20362;-65
2021/06/02 01:15:05;;;;;;;6.63;5.93;;;13.90;99.90;;;;;;5070252;28;20330;-66
2021/06/02 01:17:33;;;;;;;6.80;6.10;;;13.90;99.90;;;;;;5074816;28;20185;-64
2021/06/02 01:20:03;;;;;;;7.17;5.93;;;13.80;99.90;;;;;;5083069;28;20429;-66
2021/06/02 01:22:34;;;;;;;9.60;6.20;;;13.80;99.90;;;;;;5080099;28;20211;-66
2021/06/02 01:25:11;;;;;;;10.10;6.50;;;13.70;99.90;;;;;;5077918;28;20238;-66
2021/06/02 01:27:40;;;;;;;6.30;5.67;;;13.70;99.90;;;;;;5082361;28;20199;-66
2021/06/02 01:30:09;;;;;;;6.70;6.10;;;13.70;99.90;;;;;;5076851;28;20259;-66
2021/06/02 01:32:54;;;;;;;6.70;6.20;;;13.70;99.90;;;;;;5074147;28;20267;-66
2021/06/02 01:35:46;;;;;;;7.40;6.50;;;13.60;99.90;;;;;;5081639;28;20210;-65
2021/06/02 01:38:45;;;;;;;9.37;6.07;;;13.60;99.90;;;;;;5073379;28;20222;-65
2021/06/02 01:41:24;;;;;;;6.50;5.80;;;13.50;99.90;;;;;;5075027;28;20180;-66
2021/06/02 01:44:30;;;;;;;6.97;6.37;;;13.50;99.90;;;;;;5077856;28;20426;-66
2021/06/02 01:47:24;;;;;;;10.50;6.13;;;13.40;99.90;;;;;;5077714;28;20217;-66
2021/06/02 01:50:03;;;;;;;6.73;5.97;;;13.40;99.90;;;;;;5066853;28;20197;-64
2021/06/02 01:53:20;;;;;;;6.83;6.23;;;13.40;99.90;;;;;;5072927;28;20269;-66
2021/06/02 01:56:41;;;;;;;10.83;7.47;;;13.30;99.90;;;;;;5035644;28;20185;-66
2021/06/02 01:59:47;;;;;;;7.73;7.03;;;13.30;99.90;;;;;;5095604;28;20217;-66
2021/06/02 02:02:54;;;;;;;6.47;5.97;;;13.30;99.90;;;;;;5085740;28;20219;-61
2021/06/02 02:05:51;;;;;;;7.50;6.50;;;13.20;99.90;;;;;;5089062;28;20198;-66
2021/06/02 02:08:34;;;;;;;12.00;7.17;;;13.10;99.90;;;;;;5090376;28;20179;-66
2021/06/02 02:11:09;;;;;;;8.60;6.77;;;13.10;99.90;;;;;;5090480;28;20199;-65
2021/06/02 02:13:56;;;;;;;8.00;7.20;;;13.00;99.90;;;;;;5084976;28;20203;-66
2021/06/02 02:16:39;;;;;;;12.53;8.20;;;13.00;99.90;;;;;;5102369;28;20396;-65
2021/06/02 02:19:27;;;;;;;9.67;8.23;;;12.90;99.90;;;;;;5089327;28;20187;-66
2021/06/02 02:21:59;;;;;;;7.97;7.17;;;12.90;99.90;;;;;;5087753;28;20172;-67
2021/06/02 02:24:36;;;;;;;8.83;6.63;;;12.80;99.90;;;;;;5098045;28;20188;-67
2021/06/02 02:27:18;;;;;;;7.07;6.47;;;12.80;99.90;;;;;;5084376;28;20180;-66
2021/06/02 02:29:56;;;;;;;8.00;6.77;;;12.80;99.90;;;;;;5084687;28;20245;-66
2021/06/02 02:32:47;;;;;;;8.97;6.60;;;12.70;99.90;;;;;;5085536;28;20187;-66
2021/06/02 02:35:38;;;;;;;7.07;6.47;;;12.70;99.90;;;;;;5090469;28;20183;-66
2021/06/02 02:38:16;;;;;;;7.73;6.30;;;12.70;99.90;;;;;;5087935;28;20249;-66
2021/06/02 02:40:50;;;;;;;7.43;6.57;;;12.70;99.90;;;;;;5084665;28;20418;-66
2021/06/02 02:43:28;;;;;;;7.33;6.60;;;12.60;99.90;;;;;;5084992;28;20207;-66
2021/06/02 02:46:09;;;;;;;7.70;7.00;;;12.60;99.90;;;;;;5090339;28;20192;-66
2021/06/02 02:48:45;;;;;;;7.50;6.80;;;12.50;99.90;;;;;;5087879;28;20207;-65
2021/06/02 02:51:26;;;;;;;9.00;7.30;;;12.50;99.90;;;;;;5084400;28;20195;-66
2021/06/02 02:54:03;;;;;;;7.97;7.03;;;12.50;99.90;;;;;;5113654;28;20203;-65
2021/06/02 02:56:40;;;;;;;7.80;7.03;;;12.50;99.90;;;;;;5112609;28;20216;-65
2021/06/02 02:59:18;;;;;;;11.30;7.50;;;12.40;99.90;;;;;;5121993;28;20247;-66
2021/06/02 03:01:57;;;;;;;7.77;7.07;;;12.40;99.90;;;;;;5112812;28;20387;-66
2021/06/02 03:04:26;;;;;;;9.47;7.53;;;12.30;99.90;;;;;;5109161;28;20212;-66
2021/06/02 03:07:02;;;;;;;8.03;7.17;;;12.30;99.90;;;;;;5096910;28;20182;-65
2021/06/02 03:09:34;;;;;;;8.10;7.30;;;12.20;99.90;;;;;;5112278;28;20351;-65
2021/06/02 03:12:23;;;;;;;8.20;7.40;;;12.20;99.90;;;;;;5095212;28;20183;-65
2021/06/02 03:14:58;;;;;;;7.50;6.90;;;12.20;99.90;;;;;;5110862;28;20187;-65
2021/06/02 03:17:40;;;;;;;10.70;7.00;;;12.20;99.90;;;;;;5116801;28;20475;-65
2021/06/02 03:20:17;;;;;;;11.47;7.73;;;12.10;99.90;;;;;;5113218;28;20202;-66
2021/06/02 03:23:10;;;;;;;9.40;7.73;;;12.10;99.90;;;;;;5114006;28;20210;-66
2021/06/02 03:25:42;;;;;;;10.17;7.10;;;12.00;99.90;;;;;;5085281;28;20309;-64
2021/06/02 03:28:24;;;;;;;9.03;7.77;;;12.00;99.90;;;;;;5117728;28;20243;-66
2021/06/02 03:31:01;;;;;;;8.90;7.87;;;12.00;99.90;;;;;;5113538;28;20191;-66
2021/06/02 03:33:49;;;;;;;11.70;7.57;;;12.10;99.90;;;;;;5111380;28;20454;-65
2021/06/02 03:36:29;;;;;;;8.20;7.13;;;12.00;99.90;;;;;;5111190;28;20202;-66
2021/06/02 03:39:10;;;;;;;10.63;7.87;;;12.00;99.90;;;;;;5107245;28;20457;-66
2021/06/02 03:41:52;;;;;;;8.60;7.70;;;12.00;99.90;;;;;;5093530;28;20457;-66
2021/06/02 03:44:36;;;;;;;12.20;7.57;;;12.00;99.90;;;;;;5108032;28;20202;-66
2021/06/02 03:47:16;;;;;;;10.17;8.17;;;11.90;99.90;;;;;;5112118;28;20254;-65
2021/06/02 03:49:55;;;;;;;9.63;8.50;;;11.90;99.90;;;;;;5097354;28;20466;-66
2021/06/02 03:52:35;;;;;;;8.57;7.50;;;11.90;99.90;;;;;;5122258;28;20308;-65
2021/06/02 03:55:09;;;;;;;10.97;8.77;;;11.90;99.90;;;;;;5114507;28;20258;-66
2021/06/02 03:57:40;;;;;;;9.93;7.90;;;11.90;99.90;;;;;;5113029;28;20183;-66
2021/06/02 04:00:11;;;;;;;11.43;8.60;;;11.90;99.90;;;;;;5110077;28;20188;-66
2021/06/02 04:03:01;;;;;;;10.03;8.60;;;11.90;99.90;;;;;;5096129;28;20273;-65
2021/06/02 04:05:48;;;;;;;11.33;8.60;;;11.90;99.90;;;;;;5102886;28;20374;-66
2021/06/02 04:08:21;;;;;;;9.13;8.23;;;11.90;99.90;;;;;;5123891;27;20450;-65
2021/06/02 04:11:14;;;;;;;11.33;8.30;;;11.90;99.90;;;;;;5118107;28;20408;-65
2021/06/02 04:13:55;;;;;;;10.97;8.10;;;11.90;99.90;;;;;;5121388;28;20191;-65
2021/06/02 04:16:29;;;;;;;9.07;8.13;;;11.90;99.90;;;;;;5108486;28;20201;-65
2021/06/02 04:19:01;;;;;;;8.97;7.83;;;11.90;99.90;;;;;;5104447;28;20175;-65
2021/06/02 04:21:32;;;;;;;11.67;8.60;;;12.00;99.90;;;;;;5112579;28;20233;-65
2021/06/02 04:24:04;;;;;;;9.93;8.93;;;11.90;99.90;;;;;;5112284;28;20397;-65
2021/06/02 04:26:33;;;;;;;10.17;8.63;;;11.90;99.90;;;;;;5110823;28;20239;-65
2021/06/02 04:29:04;;;;;;;13.47;9.20;;;11.90;99.90;;;;;;5106966;28;20228;-65
2021/06/02 04:31:32;;;;;;;10.40;9.30;;;11.90;99.90;;;;;;5110830;27;20210;-65
2021/06/02 04:34:00;;;;;;;11.87;8.97;;;12.00;99.90;;;;;;5107376;28;20339;-65
2021/06/02 04:36:31;;;;;;;9.90;8.73;;;12.00;99.90;;;;;;5118604;28;20198;-66
2021/06/02 04:39:00;;;;;;;11.00;9.10;;;12.10;99.90;;;;;;5119237;27;20191;-65
2021/06/02 04:41:29;;;;;;;11.33;9.17;;;12.20;99.90;;;;;;5118167;27;20367;-65
2021/06/02 04:43:58;;;;;;;12.80;9.60;;;12.30;99.90;;;;;;5124051;28;20214;-65
2021/06/02 04:46:26;;;;;;;16.60;9.20;;;12.40;99.90;;;;;;5118456;28;20189;-65
2021/06/02 04:48:54;;;;;;;15.40;9.30;;;12.50;99.90;;;;;;5126683;28;20342;-65
2021/06/02 04:52:01;;;;;;;13.20;9.20;;;12.60;99.90;;;;;;5117126;28;20187;-65
2021/06/02 04:54:59;;;;;;;14.43;9.27;;;12.80;99.90;;;;;;5108012;28;20219;-65
2021/06/02 04:58:07;;;;;;;10.37;8.63;;;12.90;99.90;;;;;;5117244;28;20420;-65
2021/06/02 05:01:05;;;;;;;11.23;9.00;;;13.00;99.90;;;;;;5103203;28;20228;-65
2021/06/02 05:04:01;;;;;;;11.47;7.83;;;13.20;99.90;;;;;;5113731;27;20256;-65
2021/06/02 05:07:06;;;;;;;10.97;8.17;;;13.40;99.90;;;;;;5122578;28;20486;-65
2021/06/02 05:10:08;;;;;;;14.43;8.53;;;13.60;99.90;;;;;;5117775;28;20190;-65
2021/06/02 05:13:26;;;;;;;11.63;8.30;;;13.80;99.90;;;;;;5116973;28;20408;-65
2021/06/02 05:16:40;;;;;;;16.70;8.17;;;14.00;99.90;;;;;;5094670;28;20192;-65
2021/06/02 05:20:00;;;;;;;13.23;8.17;;;14.10;99.90;;;;;;5039106;28;20189;-65
2021/06/02 05:23:12;;;;;;;13.83;8.77;;;14.20;99.90;;;;;;5107382;28;20467;-65
2021/06/02 05:26:15;;;;;;;10.17;8.20;;;14.40;99.90;;;;;;5108145;27;20179;-65
2021/06/02 05:29:26;;;;;;;9.57;7.73;;;14.50;99.90;;;;;;5100828;28;20203;-65
2021/06/02 05:32:34;;;;;;;11.70;8.13;;;14.60;99.90;;;;;;5113458;28;20202;-65
2021/06/02 05:35:27;;;;;;;12.60;7.83;;;14.70;99.90;;;;;;5087259;28;20182;-65
2021/06/02 05:38:33;;;;;;;10.40;7.77;;;14.90;99.90;;;;;;5103327;28;20209;-65
2021/06/02 05:41:07;;;;;;;13.60;8.30;;;15.10;99.90;;;;;;5087796;28;20193;-65
2021/06/02 05:44:27;;;;;;;10.63;8.20;;;15.30;99.90;;;;;;5116994;28;20237;-65
2021/06/02 05:47:35;;;;;;;13.53;8.30;;;15.50;99.90;;;;;;5115997;28;20240;-65
2021/06/02 05:50:25;;;;;;;10.57;7.50;;;15.70;99.90;;;;;;5090067;28;20224;-66
2021/06/02 05:53:29;;;;;;;10.23;7.47;;;15.80;99.90;;;;;;5099953;28;20234;-65
2021/06/02 05:56:45;;;;;;;12.93;7.23;;;16.00;99.90;;;;;;5070379;28;20210;-65
2021/06/02 06:00:03;;;;;;;11.93;7.70;;;16.20;99.90;;;;;;5115078;28;20175;-65
2021/06/02 06:03:04;;;;;;;9.20;8.07;;;16.50;99.90;;;;;;5118739;28;20190;-65
2021/06/02 06:05:53;;;;;;;10.00;7.53;;;16.70;99.90;;;;;;5110350;28;20186;-65
2021/06/02 06:08:54;;;;;;;11.53;7.13;;;16.80;99.90;;;;;;5113550;28;20184;-65
2021/06/02 06:12:13;;;;;;;11.77;7.77;;;16.90;99.90;;;;;;5111199;28;20212;-66
2021/06/02 06:15:12;;;;;;;10.13;7.77;;;17.10;99.90;;;;;;5105047;28;20184;-66
2021/06/02 06:18:16;;;;;;;8.40;7.20;;;17.30;99.90;;;;;;5104460;28;20240;-66
2021/06/02 06:21:32;;;;;;;9.90;7.50;;;17.40;99.90;;;;;;5122456;28;20432;-66
2021/06/02 06:24:04;;;;;;;12.10;6.87;;;17.60;99.90;;;;;;5038628;28;20497;-65
2021/06/02 06:26:36;;;;;;;17.80;8.10;;;17.70;99.90;;;;;;5098327;28;20195;-66
2021/06/02 06:29:10;;;;;;;11.43;6.77;;;17.90;99.90;;;;;;5104363;28;20326;-66
2021/06/02 06:31:43;;;;;;;7.13;6.47;;;18.20;99.90;;;;;;5104534;28;20419;-65
2021/06/02 06:34:15;;;;;;;9.03;7.00;;;18.40;99.90;;;;;;5104752;28;20226;-66
2021/06/02 06:36:45;;;;;;;8.03;7.20;;;18.50;99.90;;;;;;5116604;28;20191;-65
2021/06/02 06:39:23;;;;;;;8.60;6.20;;;18.60;99.90;;;;;;5092530;28;20342;-66
2021/06/02 06:41:52;;;;;;;14.10;6.23;;;18.70;99.90;;;;;;5123182;28;20403;-66
2021/06/02 06:44:21;;;;;;;9.07;5.93;;;18.90;99.90;;;;;;5104628;28;20233;-66
2021/06/02 06:46:53;;;;;;;7.30;6.47;;;19.20;99.90;;;;;;5115423;28;20187;-66
2021/06/02 06:49:24;;;;;;;8.80;5.93;;;19.40;99.90;;;;;;5111572;28;20190;-65
2021/06/02 06:51:53;;;;;;;9.07;5.90;;;19.70;99.90;;;;;;5117627;28;20467;-66
2021/06/02 06:54:23;;;;;;;6.43;5.80;;;19.70;99.90;;;;;;5112990;28;20222;-66
2021/06/02 06:56:54;;;;;;;6.77;5.57;;;20.00;99.90;;;;;;5111311;27;20190;-66
2021/06/02 06:59:22;;;;;;;10.37;5.50;;;20.10;99.90;;;;;;5115017;28;20273;-66
2021/06/02 07:01:52;;;;;;;8.83;5.63;;;20.10;99.90;;;;;;5114614;28;20291;-66
2021/06/02 07:04:20;;;;;;;9.07;5.47;;;20.30;99.90;;;;;;5118231;28;20508;-66
2021/06/02 07:06:49;;;;;;;6.10;5.10;;;20.70;99.90;;;;;;5108036;28;20431;-62
2021/06/02 07:09:17;;;;;;;12.07;5.50;;;20.80;99.90;;;;;;5100237;28;20178;-66
2021/06/02 07:11:45;;;;;;;7.70;4.97;;;21.20;99.90;;;;;;5113588;28;20197;-66
2021/06/02 07:14:23;;;;;;;11.70;5.30;;;21.20;99.90;;;;;;5119693;28;20187;-66
2021/06/02 07:16:57;;;;;;;6.67;5.17;;;21.50;99.90;;;;;;5108271;28;20403;-66
2021/06/02 07:19:27;;;;;;;9.27;5.07;;;21.70;99.90;;;;;;5114249;28;20202;-66
2021/06/02 07:21:57;;;;;;;5.70;4.97;;;21.80;99.90;;;;;;5113108;28;20182;-66
2021/06/02 07:24:26;;;;;;;8.07;5.10;;;21.80;99.90;;;;;;5105875;28;20344;-66
2021/06/02 07:26:54;;;;;;;7.90;5.30;;;21.90;99.90;;;;;;5112195;28;20179;-66
2021/06/02 07:29:23;;;;;;;9.47;4.90;;;21.90;99.90;;;;;;5120559;28;20441;-66
2021/06/02 07:31:52;;;;;;;11.20;5.20;;;21.90;99.90;;;;;;5108819;28;20189;-66
2021/06/02 07:34:21;;;;;;;8.30;5.20;;;22.00;99.90;;;;;;5109722;28;20197;-67
2021/06/02 07:36:50;;;;;;;7.53;4.97;;;22.60;99.90;;;;;;5086909;28;20179;-62
2021/06/02 07:39:18;;;;;;;5.20;4.40;;;22.70;99.90;;;;;;5110912;28;20230;-67
2021/06/02 07:41:46;;;;;;;6.50;4.60;;;22.70;99.90;;;;;;5111438;28;20192;-66
2021/06/02 07:44:14;;;;;;;5.13;4.63;;;22.80;99.90;;;;;;5110088;28;20326;-66
2021/06/02 07:46:42;;;;;;;9.67;4.60;;;23.00;99.90;;;;;;5108321;28;20192;-66
2021/06/02 07:49:11;;;;;;;10.20;4.90;;;23.10;99.90;;;;;;5115512;28;20314;-66
2021/06/02 07:51:40;;;;;;;4.90;4.60;;;23.30;99.90;;;;;;5111031;28;20185;-66
2021/06/02 07:54:08;;;;;;;5.27;4.33;;;23.40;99.90;;;;;;5110541;28;20224;-66
2021/06/02 07:56:36;;;;;;;6.63;4.90;;;23.40;99.90;;;;;;5108199;28;20375;-66
2021/06/02 07:59:04;;;;;;;9.07;4.47;;;23.60;99.90;;;;;;5111498;28;20190;-66
2021/06/02 08:01:32;;;;;;;5.87;4.63;;;23.80;99.90;;;;;;5116442;28;20190;-66
2021/06/02 08:04:00;;;;;;;4.40;4.00;;;24.20;99.90;;;;;;5113814;28;20205;-66
2021/06/02 08:06:29;;;;;;;10.47;4.70;;;24.60;99.90;;;;;;5114980;28;20224;-66
2021/06/02 08:08:58;;;;;;;5.57;4.17;;;24.80;99.90;;;;;;5117649;28;20224;-67
2021/06/02 08:11:26;;;;;;;5.13;4.60;;;24.80;99.90;;;;;;5111974;28;20417;-66
2021/06/02 08:13:54;;;;;;;8.80;4.30;;;24.80;99.90;;;;;;5116526;28;20184;-66
2021/06/02 08:16:23;;;;;;;8.03;4.10;;;24.80;99.90;;;;;;5113256;28;20192;-66
2021/06/02 08:18:53;;;;;;;4.23;3.93;;;25.00;99.90;;;;;;5117097;28;20477;-65
2021/06/02 08:21:24;;;;;;;5.82;4.22;;;25.20;99.90;;;;;;5110409;28;20199;-66
2021/06/02 08:23:53;;;;;;;6.60;3.70;;;25.50;99.90;;;;;;5096687;28;20175;-64
2021/06/02 08:26:21;;;;;;;3.70;3.30;;;25.70;99.90;;;;;;5100159;28;20199;-66
2021/06/02 08:28:50;;;;;;;4.07;3.60;;;26.00;99.90;;;;;;5116199;28;20236;-64
2021/06/02 08:31:17;;;;;;;3.88;3.47;;;26.20;99.90;;;;;;5113735;28;20224;-64
2021/06/02 08:33:45;;;;;;;7.30;3.30;;;26.40;99.90;;;;;;5120763;28;20227;-64
2021/06/02 08:36:13;;;;;;;5.32;3.42;;;26.60;99.90;;;;;;5119562;28;20181;-64
2021/06/02 08:38:41;;;;;;;6.00;3.88;;;26.80;99.90;;;;;;5112663;28;20177;-64
2021/06/02 08:41:10;;;;;;;5.97;3.22;;;27.00;99.90;;;;;;5124938;28;20181;-64
2021/06/02 08:43:42;;;;;;;6.95;3.15;;;26.90;99.90;;;;;;5109761;28;20207;-64
2021/06/02 08:46:10;;;;;;;6.60;3.50;;;27.20;99.90;;;;;;5110710;28;20445;-64
2021/06/02 08:48:38;;;;;;;4.45;3.25;;;27.40;99.90;;;;;;5102223;28;20185;-64
2021/06/02 08:51:07;;;;;;;4.95;3.00;;;27.60;99.90;;;;;;5112017;28;20192;-63
2021/06/02 08:53:35;;;;;;;4.95;3.00;;;28.00;99.90;;;;;;5114790;28;20267;-63
2021/06/02 08:56:05;;;;;;;4.45;2.90;;;28.30;99.90;;;;;;5121828;28;20187;-66
2021/06/02 08:58:37;;;;;;;3.20;2.90;;;28.40;99.90;;;;;;5119184;27;20226;-67
2021/06/02 09:01:05;;;;;;;5.78;2.92;;;28.60;99.90;;;;;;5122737;27;20361;-67
2021/06/02 09:03:34;;;;;;;7.97;2.97;;;28.80;99.90;;;;;;5118393;28;20184;-68
2021/06/02 09:06:07;;;;;;;3.75;2.50;;;29.10;99.90;;;;;;5122831;28;20279;-65
2021/06/02 09:08:38;;;;;;;2.53;2.33;;;29.10;99.90;;;;;;5117190;28;20186;-67
2021/06/02 09:11:13;;;;;;;4.80;2.63;;;29.50;99.90;;;;;;5123635;28;20183;-68
2021/06/02 09:13:43;;;;;;;3.58;2.58;;;29.70;99.60;;;;;;5115085;28;20224;-68
2021/06/02 09:16:19;;;;;;;2.53;2.30;;;29.80;99.90;;;;;;5121918;28;20195;-68
2021/06/02 09:18:58;;;;;;;4.03;2.65;;;29.90;98.10;;;;;;5114037;28;20250;-67
2021/06/02 09:21:28;;;;;;;2.47;2.28;;;29.80;97.90;;;;;;5109872;28;20223;-67
2021/06/02 09:23:56;;;;;;;2.28;2.03;;;29.50;94.70;;;;;;5117200;28;20182;-67
2021/06/02 09:26:25;;;;;;;2.22;2.10;;;29.50;96.30;;;;;;5116822;28;20203;-67
2021/06/02 09:29:03;;;;;;;2.47;2.30;;;29.50;97.00;;;;;;5110552;28;20184;-68
2021/06/02 09:31:33;;;;;;;2.50;2.28;;;30.00;96.60;;;;;;5095491;28;20796;-68
2021/06/02 09:34:12;;;;;;;3.53;2.17;;;29.90;95.30;;;;;;5117470;28;20401;-68
2021/06/02 09:36:41;;;;;;;2.25;2.15;;;29.90;95.60;;;;;;5106892;28;20191;-69
2021/06/02 09:39:11;;;;;;;3.72;1.98;;;30.00;95.20;;;;;;5124013;28;20185;-67
2021/06/02 09:41:41;;;;;;;2.17;1.98;;;30.10;92.80;;;;;;5107574;28;20184;-68
2021/06/02 09:44:16;;;;;;;2.33;2.17;;;30.40;94.10;;;;;;5095887;28;20253;-68
2021/06/02 09:47:05;;;;;;;2.40;2.13;;;30.20;92.20;;;;;;5116633;28;20244;-67
2021/06/02 09:49:46;;;;;;;2.08;1.90;;;30.10;95.00;;;;;;5117961;28;20193;-68
2021/06/02 09:52:14;;;;;;;4.53;2.20;;;30.40;94.00;;;;;;5121567;28;20258;-68
2021/06/02 09:54:42;;;;;;;2.47;2.08;;;30.60;93.00;;;;;;5108018;28;20228;-68
2021/06/02 09:57:12;;;;;;;4.28;2.30;;;30.50;92.60;;;;;;5106465;28;20339;-68
2021/06/02 09:59:58;;;;;;;2.60;2.40;;;30.60;92.70;;;;;;5114493;28;20180;-68
2021/06/02 10:02:26;;;;;;;2.55;2.35;;;30.50;92.90;;;;;;5109630;28;20191;-69
2021/06/02 10:05:04;;;;;;;5.85;2.60;;;30.30;94.10;;;;;;5119291;28;20461;-68
2021/06/02 10:07:33;;;;;;;2.85;2.30;;;30.50;92.00;;;;;;5113550;28;20259;-68
2021/06/02 10:10:08;;;;;;;2.60;2.40;;;30.50;93.70;;;;;;5120310;28;20232;-68
2021/06/02 10:12:36;;;;;;;5.30;2.25;;;30.70;92.20;;;;;;5114093;28;20181;-68
2021/06/02 10:15:07;;;;;;;2.47;2.30;;;30.80;90.70;;;;;;5120521;28;20197;-68
2021/06/02 10:17:38;;;;;;;2.83;2.20;;;30.70;93.50;;;;;;5109040;28;20234;-68
2021/06/02 10:20:08;;;;;;;4.45;2.20;;;31.00;90.50;;;;;;5109299;28;20228;-69
2021/06/02 10:22:37;;;;;;;4.20;2.47;;;31.20;92.00;;;;;;5126783;28;20190;-68
2021/06/02 10:25:07;;;;;;;3.58;2.17;;;31.20;90.00;;;;;;5112197;28;20222;-68
2021/06/02 10:27:35;;;;;;;2.33;2.20;;;31.30;90.70;;;;;;5113761;28;20206;-68
2021/06/02 10:30:06;;;;;;;2.58;2.38;;;31.40;91.50;;;;;;5115208;28;20178;-68
2021/06/02 10:32:35;;;;;;;3.30;2.40;;;31.50;91.30;;;;;;5124898;28;20189;-68
2021/06/02 10:35:04;;;;;;;3.22;2.70;;;31.60;91.50;;;;;;5117484;28;20382;-68
2021/06/02 10:37:35;;;;;;;4.38;2.65;;;31.40;92.10;;;;;;5095949;28;20185;-68
2021/06/02 10:40:06;;;;;;;2.95;2.30;;;31.80;92.80;;;;;;5116668;28;20182;-68
2021/06/02 10:42:39;;;;;;;5.80;2.10;;;32.00;90.00;;;;;;5114114;28;20342;-68
2021/06/02 10:45:18;;;;;;;6.82;2.97;;;31.70;90.30;;;;;;5116112;28;20235;-68
2021/06/02 10:47:57;;;;;;;3.72;2.28;;;31.70;91.80;;;;;;5113099;28;20398;-68
2021/06/02 10:50:30;;;;;;;2.50;2.35;;;31.60;90.00;;;;;;5112930;28;20250;-68
2021/06/02 10:52:59;;;;;;;3.50;2.22;;;31.70;90.30;;;;;;5118871;28;20227;-68
2021/06/02 10:55:39;;;;;;;2.90;2.70;;;31.60;90.00;;;;;;5125113;28;20242;-68
2021/06/02 10:58:18;;;;;;;3.50;2.50;;;31.50;92.20;;;;;;5122922;28;20369;-68
2021/06/02 11:00:49;;;;;;;2.35;2.20;;;31.60;91.00;;;;;;5119651;28;20190;-68
2021/06/02 11:03:22;;;;;;;3.15;2.50;;;31.60;91.20;;;;;;5113650;28;20195;-68
2021/06/02 11:06:19;;;;;;;5.38;2.55;;;31.50;90.90;;;;;;5120839;28;20217;-67
2021/06/02 11:09:23;;;;;;;2.42;2.17;;;31.60;93.40;;;;;;5115809;27;20477;-68
2021/06/02 11:12:06;;;;;;;2.50;2.40;;;31.40;92.70;;;;;;5114690;28;20187;-68
2021/06/02 11:14:34;;;;;;;5.25;2.67;;;31.30;92.30;;;;;;5093880;28;20254;-68
2021/06/02 11:17:16;;;;;;;2.30;2.10;;;31.20;93.50;;;;;;5119375;28;20309;-67
2021/06/02 11:19:55;;;;;;;2.60;2.40;;;31.10;90.40;;;;;;5117617;28;20211;-67
2021/06/02 11:22:26;;;;;;;2.60;2.40;;;30.90;92.20;;;;;;5115780;28;20386;-68
2021/06/02 11:24:56;;;;;;;2.72;2.50;;;30.60;89.50;;;;;;5111586;28;20200;-67
2021/06/02 11:27:51;;;;;;;2.80;2.60;;;30.50;90.90;;;;;;5118402;28;20190;-68
2021/06/02 11:30:27;;;;;;;2.42;2.28;;;30.60;87.40;;;;;;5106410;28;20176;-68
2021/06/02 11:33:07;;;;;;;2.40;2.30;;;30.70;87.10;;;;;;5108827;28;20245;-67
2021/06/02 11:36:07;;;;;;;2.47;2.25;;;30.80;91.90;;;;;;5112797;28;20389;-67
2021/06/02 11:38:37;;;;;;;2.00;1.90;;;30.60;90.60;;;;;;5119975;28;20191;-67
2021/06/02 11:41:05;;;;;;;2.45;2.10;;;30.50;89.60;;;;;;5124494;28;20360;-67
2021/06/02 11:43:33;;;;;;;5.07;2.38;;;30.60;94.00;;;;;;5116219;28;20183;-67
2021/06/02 11:46:02;;;;;;;2.30;2.20;;;30.60;90.30;;;;;;5112380;28;20220;-63
2021/06/02 11:48:37;;;;;;;2.42;2.33;;;30.70;92.20;;;;;;5097009;28;20185;-67
2021/06/02 11:51:10;;;;;;;2.58;2.38;;;30.80;91.50;;;;;;5117498;28;20213;-67
2021/06/02 11:53:48;;;;;;;2.92;2.70;;;30.80;90.00;;;;;;5122290;27;20267;-67
2021/06/02 11:56:19;;;;;;;5.20;2.70;;;30.50;90.00;;;;;;5122593;28;20176;-67
2021/06/02 11:58:50;;;;;;;2.78;2.58;;;30.30;90.20;;;;;;5113098;28;20206;-68
2021/06/02 12:01:24;;;;;;;2.10;2.10;;;30.30;90.90;;;;;;5113018;28;20180;-67
2021/06/02 12:04:00;;;;;;;3.60;2.60;;;30.20;92.60;;;;;;5110449;28;20191;-67
2021/06/02 12:06:30;;;;;;;4.50;2.30;;;30.00;90.50;;;;;;5099928;28;20218;-67
2021/06/02 12:08:59;;;;;;;2.47;2.33;;;29.90;90.50;;;;;;5118467;28;20183;-66
2021/06/02 12:11:27;;;;;;;5.30;2.30;;;29.90;90.80;;;;;;5120593;28;20198;-67
2021/06/02 12:13:55;;;;;;;2.37;2.27;;;29.80;92.30;;;;;;5112867;28;20175;-68
2021/06/02 12:16:25;;;;;;;2.50;2.40;;;29.60;93.50;;;;;;5116549;28;20385;-67
2021/06/02 12:19:00;;;;;;;2.63;2.43;;;29.70;91.10;;;;;;5103030;28;20237;-68
2021/06/02 12:21:31;;;;;;;4.30;2.70;;;29.90;93.60;;;;;;5110879;28;20187;-67
2021/06/02 12:24:01;;;;;;;2.73;2.40;;;29.90;89.50;;;;;;5119973;28;20183;-67
2021/06/02 12:26:31;;;;;;;2.70;2.40;;;29.80;90.90;;;;;;5123294;28;20284;-67
2021/06/02 12:29:01;;;;;;;2.63;2.40;;;29.60;92.80;;;;;;5115707;28;20187;-67
2021/06/02 12:31:40;;;;;;;2.50;2.13;;;29.70;94.30;;;;;;5115888;28;20193;-67
2021/06/02 12:34:13;;;;;;;4.00;2.43;;;29.60;93.20;;;;;;5119395;28;20186;-67
2021/06/02 12:36:48;;;;;;;2.73;2.50;;;29.70;93.40;;;;;;5121809;28;20182;-66
2021/06/02 12:39:19;;;;;;;2.63;2.47;;;29.50;94.40;;;;;;5118593;28;20181;-67
2021/06/02 12:41:48;;;;;;;2.60;2.50;;;29.60;91.60;;;;;;5121123;27;20200;-66
2021/06/02 12:44:22;;;;;;;2.63;2.43;;;29.40;91.00;;;;;;5127741;28;20363;-69
2021/06/02 12:46:58;;;;;;;3.23;2.23;;;29.40;94.50;;;;;;5119808;28;20214;-67
2021/06/02 12:49:28;;;;;;;4.23;2.60;;;29.20;91.70;;;;;;5118810;28;20182;-69
2021/06/02 12:51:57;;;;;;;2.57;2.47;;;29.00;91.30;;;;;;5113216;28;20238;-67
2021/06/02 12:54:27;;;;;;;2.60;2.40;;;29.20;94.90;;;;;;5119431;28;20431;-67
2021/06/02 12:56:55;;;;;;;4.63;2.80;;;29.00;91.80;;;;;;5121533;28;20197;-67
2021/06/02 12:59:28;;;;;;;4.83;2.90;;;29.20;93.90;;;;;;5119904;28;20191;-67
2021/06/02 13:01:59;;;;;;;4.10;2.60;;;29.20;92.40;;;;;;5124913;28;20311;-67
2021/06/02 13:04:29;;;;;;;3.07;2.77;;;29.20;93.20;;;;;;5107591;28;20199;-67
2021/06/02 13:06:57;;;;;;;3.30;3.00;;;29.30;92.00;;;;;;5117820;28;20479;-67
2021/06/02 13:09:26;;;;;;;2.77;2.57;;;29.10;91.90;;;;;;5122280;28;20556;-69
2021/06/02 13:11:55;;;;;;;3.80;3.57;;;29.30;94.50;;;;;;5112153;28;20187;-67
2021/06/02 13:14:34;;;;;;;7.37;6.40;;;29.50;92.20;;;;;;5119645;28;20179;-70
2021/06/02 13:17:03;;;;;;;2.70;2.50;;;29.30;94.90;;;;;;5125858;27;20171;-69
2021/06/02 13:19:38;;;;;;;2.47;2.30;;;29.40;93.50;;;;;;5100077;28;20176;-68
2021/06/02 13:22:16;;;;;;;2.60;2.50;;;29.60;96.40;;;;;;5119511;28;20190;-69
2021/06/02 13:24:44;;;;;;;2.80;2.60;;;29.70;92.80;;;;;;5119863;28;20198;-69
2021/06/02 13:27:15;;;;;;;3.33;2.40;;;29.60;91.30;;;;;;5109654;28;20420;-69
2021/06/02 13:30:04;;;;;;;2.70;2.43;;;29.60;95.50;;;;;;5115407;28;20232;-69
2021/06/02 13:32:32;;;;;;;2.87;2.40;;;29.90;93.80;;;;;;5123429;28;20221;-69
2021/06/02 13:35:06;;;;;;;2.43;2.33;;;30.10;93.60;;;;;;5101966;28;20230;-69
2021/06/02 13:37:42;;;;;;;2.57;2.37;;;30.30;95.00;;;;;;5117915;28;20186;-69